createdAt,value
2023-04-22T00:01:40.246Z,100106.06
2023-04-22T00:04:07.666Z,100100.47
2023-04-22T00:06:35.694Z,100110.69
2023-04-22T00:09:03.506Z,100114.03
2023-04-22T00:11:30.810Z,100117.94
2023-04-22T00:13:58.202Z,100124.63
2023-04-22T00:16:27.246Z,100130.59
2023-04-22T00:18:54.535Z,100129.38
2023-04-22T00:21:22.055Z,100126.78
2023-04-22T00:23:49.408Z,100131.78
2023-04-22T00:26:16.712Z,100120.94
2023-04-22T00:28:44.072Z,100121.56
2023-04-22T00:31:11.414Z,100125.00
2023-04-22T00:33:38.746Z,100129.63
2023-04-22T00:36:06.364Z,100120.69
2023-04-22T00:38:33.956Z,100123.88
2023-04-22T00:41:01.348Z,100114.53
2023-04-22T00:43:28.869Z,100120.84
2023-04-22T00:45:57.488Z,100123.66
2023-04-22T00:48:26.845Z,100127.97
2023-04-22T00:50:58.644Z,100122.44
2023-04-22T00:53:26.216Z,100125.09
2023-04-22T00:55:53.865Z,100125.94
2023-04-22T00:58:21.869Z,100110.03
2023-04-22T01:00:50.319Z,100103.53
2023-04-22T01:03:18.297Z,100102.16
2023-04-22T01:05:47.424Z,100090.16
2023-04-22T01:08:14.945Z,100082.53
2023-04-22T01:10:42.791Z,100077.03
2023-04-22T01:13:10.424Z,100083.44
2023-04-22T01:15:38.123Z,100080.31
2023-04-22T01:18:05.647Z,100075.41
2023-04-22T01:20:33.163Z,100070.03
2023-04-22T01:23:03.214Z,100066.81
2023-04-22T01:25:31.147Z,100060.72
2023-04-22T01:27:58.581Z,100059.22
2023-04-22T01:30:26.309Z,100051.59
2023-04-22T01:32:53.890Z,100054.41
2023-04-22T01:35:21.530Z,100058.16
2023-04-22T01:37:48.808Z,100058.81
2023-04-22T01:40:19.705Z,100052.16
2023-04-22T01:42:47.217Z,100052.25
2023-04-22T01:45:17.618Z,100045.16
2023-04-22T01:47:45.726Z,100045.25
2023-04-22T01:50:13.036Z,100038.28
2023-04-22T01:52:40.499Z,100025.06
2023-04-22T01:55:08.619Z,100028.25
2023-04-22T01:57:36.456Z,100016.03
2023-04-22T02:00:05.687Z,100021.34
2023-04-22T02:02:40.077Z,99999.63
2023-04-22T02:05:08.287Z,99997.34
2023-04-22T02:07:36.518Z,99990.16
2023-04-22T02:10:05.598Z,99989.66
2023-04-22T02:12:32.980Z,100010.66
2023-04-22T02:15:00.298Z,100006.44
2023-04-22T02:17:27.881Z,100004.78
2023-04-22T02:19:55.429Z,99998.25
2023-04-22T02:22:23.917Z,99997.72
2023-04-22T02:24:51.750Z,100003.88
2023-04-22T02:27:18.991Z,99998.75
2023-04-22T02:29:48.491Z,100008.81
2023-04-22T02:32:17.979Z,100000.44
2023-04-22T02:34:45.305Z,100005.88
2023-04-22T02:37:13.703Z,100009.75
2023-04-22T02:39:41.082Z,100002.41
2023-04-22T02:42:08.677Z,100007.03
2023-04-22T02:44:36.101Z,100004.97
2023-04-22T02:47:04.245Z,100000.03
2023-04-22T02:49:31.508Z,100009.25
2023-04-22T02:51:58.896Z,99998.63
2023-04-22T02:54:26.228Z,99987.81
2023-04-22T02:56:53.525Z,99999.50
2023-04-22T02:59:20.941Z,99994.03
2023-04-22T03:01:48.612Z,99983.78
2023-04-22T03:04:28.738Z,99972.38
2023-04-22T03:06:56.314Z,99966.66
2023-04-22T03:09:23.639Z,99956.53
2023-04-22T03:11:50.892Z,99956.59
2023-04-22T03:14:18.251Z,99956.22
2023-04-22T03:16:45.591Z,99949.53
2023-04-22T03:19:15.099Z,99939.16
2023-04-22T03:21:42.445Z,99944.53
2023-04-22T03:24:10.079Z,99937.34
2023-04-22T03:26:42.993Z,99927.44
2023-04-22T03:29:10.287Z,99934.81
2023-04-22T03:31:37.814Z,99929.97
2023-04-22T03:34:05.250Z,99928.38
2023-04-22T03:36:33.210Z,99927.72
2023-04-22T03:39:00.755Z,99944.81
2023-04-22T03:41:29.264Z,99943.13
2023-04-22T03:43:56.927Z,99944.41
2023-04-22T03:46:25.480Z,99945.16
2023-04-22T03:49:00.724Z,99952.53
2023-04-22T03:51:32.321Z,99928.81
2023-04-22T03:54:03.751Z,99922.19
2023-04-22T03:56:34.287Z,99908.22
2023-04-22T03:59:02.063Z,99914.13
2023-04-22T04:01:29.689Z,99904.69
2023-04-22T04:04:00.805Z,99917.47
2023-04-22T04:06:36.093Z,99941.66
2023-04-22T04:09:05.602Z,99943.50
2023-04-22T04:11:33.872Z,99934.75
2023-04-22T04:14:03.514Z,99914.38
2023-04-22T04:16:41.951Z,99904.34
2023-04-22T04:19:14.456Z,99870.00
2023-04-22T04:21:42.312Z,99852.03
2023-04-22T04:24:09.981Z,99851.78
2023-04-22T04:26:43.413Z,99843.72
2023-04-22T04:29:15.879Z,99854.50
2023-04-22T04:31:49.546Z,99863.59
2023-04-22T04:34:17.711Z,99884.25
2023-04-22T04:36:46.543Z,99908.09
2023-04-22T04:39:29.182Z,99895.88
2023-04-22T04:41:59.013Z,99890.69
2023-04-22T04:44:28.209Z,99875.34
2023-04-22T04:46:58.094Z,99857.63
2023-04-22T04:49:26.628Z,99869.06
2023-04-22T04:51:58.731Z,99857.06
2023-04-22T04:54:27.299Z,99864.81
2023-04-22T04:56:55.348Z,99842.34
2023-04-22T04:59:22.906Z,99843.41
2023-04-22T05:01:50.551Z,99851.94
2023-04-22T05:04:18.160Z,99843.47
2023-04-22T05:06:45.696Z,99845.56
2023-04-22T05:09:15.105Z,99827.06
2023-04-22T05:11:44.631Z,99822.59
2023-04-22T05:14:16.947Z,99855.28
2023-04-22T05:16:46.367Z,99875.53
2023-04-22T05:19:14.564Z,99874.03
2023-04-22T05:21:43.002Z,99880.91
2023-04-22T05:24:10.446Z,99892.53
2023-04-22T05:26:37.979Z,99874.97
2023-04-22T05:29:11.942Z,99864.44
2023-04-22T05:31:39.538Z,99860.88
2023-04-22T05:34:07.921Z,99887.59
2023-04-22T05:36:35.673Z,99911.34
2023-04-22T05:39:03.110Z,99938.94
2023-04-22T05:41:32.545Z,99952.94
2023-04-22T05:44:01.060Z,99963.16
2023-04-22T05:46:29.989Z,99941.56
2023-04-22T05:48:57.670Z,99929.38
2023-04-22T05:51:43.607Z,99906.63
2023-04-22T05:54:13.608Z,99904.03
2023-04-22T05:56:41.237Z,99902.63
2023-04-22T05:59:08.786Z,99900.97
2023-04-22T06:01:39.305Z,99901.94
2023-04-22T06:04:10.142Z,99903.78
2023-04-22T06:06:38.008Z,99927.59
2023-04-22T06:09:07.096Z,99928.28
2023-04-22T06:11:34.462Z,99917.13
2023-04-22T06:14:01.739Z,99921.94
2023-04-22T06:16:29.670Z,99914.22
2023-04-22T06:18:56.898Z,99910.25
2023-04-22T06:21:25.231Z,99905.91
2023-04-22T06:23:52.559Z,99920.50
2023-04-22T06:26:22.507Z,99917.28
2023-04-22T06:28:49.914Z,99929.50
2023-04-22T06:31:21.230Z,99930.91
2023-04-22T06:33:49.142Z,99928.94
2023-04-22T06:36:16.541Z,99929.22
2023-04-22T06:38:46.644Z,99934.03
2023-04-22T06:41:35.124Z,99925.59
2023-04-22T06:44:09.685Z,99930.97
2023-04-22T06:46:50.456Z,99932.38
2023-04-22T06:49:38.736Z,99929.81
2023-04-22T06:52:29.176Z,99927.22
2023-04-22T06:54:58.945Z,99920.88
2023-04-22T06:57:26.191Z,99917.84
2023-04-22T06:59:53.451Z,99919.75
2023-04-22T07:02:22.198Z,99915.88
2023-04-22T07:04:50.448Z,99908.66
2023-04-22T07:07:17.854Z,99901.56
2023-04-22T07:09:45.760Z,99897.97
2023-04-22T07:12:13.171Z,99897.00
2023-04-22T07:14:47.010Z,99904.00
2023-04-22T07:17:14.385Z,99908.16
2023-04-22T07:19:42.253Z,99911.97
2023-04-22T07:22:09.833Z,99903.50
2023-04-22T07:24:37.549Z,99911.28
2023-04-22T07:27:04.851Z,99915.63
2023-04-22T07:29:32.058Z,99913.28
2023-04-22T07:32:00.584Z,99921.28
2023-04-22T07:34:27.887Z,99907.34
2023-04-22T07:36:55.363Z,99909.59
2023-04-22T07:39:22.823Z,99914.59
2023-04-22T07:41:51.208Z,99914.03
2023-04-22T07:44:21.555Z,99903.34
2023-04-22T07:46:50.333Z,99906.84
2023-04-22T07:49:17.638Z,99900.59
2023-04-22T07:51:44.962Z,99903.13
2023-04-22T07:54:12.414Z,99897.00
2023-04-22T07:56:39.678Z,99903.81
2023-04-22T07:59:06.948Z,99902.78
2023-04-22T08:01:34.283Z,99902.88
2023-04-22T08:04:02.005Z,99903.53
2023-04-22T08:06:29.497Z,99899.56
2023-04-22T08:08:56.820Z,99899.75
2023-04-22T08:11:24.261Z,99896.03
2023-04-22T08:13:51.784Z,99900.63
2023-04-22T08:16:19.479Z,99898.94
2023-04-22T08:18:46.858Z,99906.28
2023-04-22T08:21:14.706Z,99911.03
2023-04-22T08:23:41.986Z,99909.63
2023-04-22T08:26:15.045Z,99921.50
2023-04-22T08:28:42.704Z,99922.63
2023-04-22T08:31:11.912Z,99918.91
2023-04-22T08:33:42.379Z,99921.31
2023-04-22T08:36:11.127Z,99919.25
2023-04-22T08:38:38.410Z,99917.50
2023-04-22T08:41:06.146Z,99923.09
2023-04-22T08:43:34.403Z,99929.38
2023-04-22T08:46:02.298Z,99922.41
2023-04-22T08:48:29.787Z,99914.81
2023-04-22T08:50:59.006Z,99922.63
2023-04-22T08:53:26.990Z,99928.63
2023-04-22T08:55:56.442Z,99923.69
2023-04-22T08:58:24.238Z,99929.09
2023-04-22T09:00:51.999Z,99936.66
2023-04-22T09:03:19.670Z,99939.19
2023-04-22T09:05:47.503Z,99927.69
2023-04-22T09:08:14.906Z,99932.16
2023-04-22T09:10:42.335Z,99940.09
2023-04-22T09:13:09.946Z,99936.88
2023-04-22T09:15:37.510Z,99941.03
2023-04-22T09:18:05.644Z,99944.09
2023-04-22T09:20:33.113Z,99942.16
2023-04-22T09:23:05.076Z,99941.97
2023-04-22T09:25:35.189Z,99948.59
2023-04-22T09:28:03.302Z,99948.09
2023-04-22T09:30:32.729Z,99948.38
2023-04-22T09:33:04.266Z,99949.66
2023-04-22T09:35:33.643Z,99960.06
2023-04-22T09:38:07.998Z,99961.00
2023-04-22T09:40:36.069Z,99962.56
2023-04-22T09:43:06.375Z,99971.13
2023-04-22T09:45:41.843Z,99978.34
2023-04-22T09:48:14.323Z,99976.00
2023-04-22T09:50:50.170Z,99983.22
2023-04-22T09:53:19.433Z,99994.44
2023-04-22T09:55:51.828Z,99992.69
2023-04-22T09:58:20.849Z,100008.28
2023-04-22T10:00:51.056Z,100008.00
2023-04-22T10:03:19.205Z,100024.03
2023-04-22T10:05:46.740Z,100014.94
2023-04-22T10:08:15.301Z,100016.31
2023-04-22T10:10:43.120Z,100024.81
2023-04-22T10:13:10.693Z,100026.56
2023-04-22T10:15:57.308Z,100018.88
2023-04-22T10:18:26.877Z,100024.16
2023-04-22T10:20:56.728Z,100029.91
2023-04-22T10:23:24.871Z,100036.72
2023-04-22T10:25:54.693Z,100028.88
2023-04-22T10:28:23.709Z,100024.56
2023-04-22T10:30:51.257Z,100034.94
2023-04-22T10:33:21.768Z,100037.66
2023-04-22T10:36:21.622Z,100043.75
2023-04-22T10:38:54.656Z,100044.47
2023-04-22T10:41:35.571Z,100041.94
2023-04-22T10:44:07.667Z,100051.38
2023-04-22T10:46:37.095Z,100052.19
2023-04-22T10:49:13.223Z,100057.22
2023-04-22T10:52:00.160Z,100065.88
2023-04-22T10:54:29.567Z,100065.34
2023-04-22T10:57:17.067Z,100076.00
2023-04-22T10:59:49.434Z,100077.97
2023-04-22T11:02:18.613Z,100078.91
2023-04-22T11:04:46.368Z,100085.47
2023-04-22T11:07:26.396Z,100099.78
2023-04-22T11:10:00.673Z,100097.69
2023-04-22T11:12:42.130Z,100102.13
2023-04-22T11:15:11.531Z,100110.06
2023-04-22T11:17:40.362Z,100117.78
2023-04-22T11:20:08.638Z,100110.06
2023-04-22T11:22:38.490Z,100109.47
2023-04-22T11:25:06.635Z,100114.53
2023-04-22T11:27:33.859Z,100112.81
2023-04-22T11:30:01.176Z,100119.50
2023-04-22T11:32:29.507Z,100132.28
2023-04-22T11:34:57.539Z,100124.56
2023-04-22T11:37:24.958Z,100147.84
2023-04-22T11:40:16.899Z,100146.69
2023-04-22T11:42:40.002Z,100138.84
2023-04-22T11:45:08.529Z,100146.91
2023-04-22T11:47:36.240Z,100139.28
2023-04-22T11:50:07.117Z,100150.22
2023-04-22T11:52:53.515Z,100160.97
2023-04-22T11:55:21.122Z,100154.72
2023-04-22T11:58:00.127Z,100159.78
2023-04-22T12:00:33.040Z,100159.13
2023-04-22T12:03:21.706Z,100160.81
2023-04-22T12:05:59.396Z,100169.63
2023-04-22T12:08:37.084Z,100166.41
2023-04-22T12:11:06.342Z,100175.88
2023-04-22T12:13:42.373Z,100178.75
2023-04-22T12:16:14.089Z,100180.25
2023-04-22T12:18:48.849Z,100184.09
2023-04-22T12:21:20.171Z,100189.78
2023-04-22T12:23:59.067Z,100192.88
2023-04-22T12:26:27.882Z,100197.34
2023-04-22T12:28:58.051Z,100193.56
2023-04-22T12:31:26.164Z,100192.84
2023-04-22T12:33:53.961Z,100191.19
2023-04-22T12:36:21.550Z,100189.03
2023-04-22T12:38:49.303Z,100189.22
2023-04-22T12:41:16.690Z,100197.34
2023-04-22T12:43:44.019Z,100191.06
2023-04-22T12:46:11.483Z,100194.41
2023-04-22T12:48:38.858Z,100188.13
2023-04-22T12:51:06.981Z,100195.56
2023-04-22T12:53:34.780Z,100195.91
2023-04-22T12:56:02.361Z,100195.44
2023-04-22T12:58:30.005Z,100201.75
2023-04-22T13:00:59.792Z,100205.94
2023-04-22T13:03:27.723Z,100201.31
2023-04-22T13:05:55.038Z,100207.06
2023-04-22T13:08:22.477Z,100209.13
2023-04-22T13:10:49.837Z,100213.78
2023-04-22T13:13:19.403Z,100202.94
2023-04-22T13:15:53.859Z,100201.59
2023-04-22T13:18:22.748Z,100208.28
2023-04-22T13:20:50.143Z,100209.59
2023-04-22T13:23:17.652Z,100203.59
2023-04-22T13:25:44.999Z,100210.38
2023-04-22T13:28:12.392Z,100208.31
2023-04-22T13:30:40.148Z,100206.88
2023-04-22T13:33:07.627Z,100214.47
2023-04-22T13:35:36.107Z,100209.28
2023-04-22T13:38:03.959Z,100209.00
2023-04-22T13:40:31.237Z,100203.44
2023-04-22T13:42:58.776Z,100211.03
2023-04-22T13:45:26.225Z,100208.53
2023-04-22T13:47:54.160Z,100206.06
2023-04-22T13:50:23.264Z,100198.31
2023-04-22T13:52:50.623Z,100192.16
2023-04-22T13:55:18.029Z,100191.53
2023-04-22T13:57:45.817Z,100180.22
2023-04-22T14:00:14.014Z,100187.72
2023-04-22T14:02:41.776Z,100189.63
2023-04-22T14:05:10.531Z,100192.38
2023-04-22T14:07:38.011Z,100188.06
2023-04-22T14:10:08.428Z,100186.63
2023-04-22T14:12:35.732Z,100179.75
2023-04-22T14:15:03.222Z,100180.41
2023-04-22T14:17:31.005Z,100171.63
2023-04-22T14:20:00.124Z,100176.41
2023-04-22T14:22:27.700Z,100184.13
2023-04-22T14:24:55.652Z,100178.88
2023-04-22T14:27:23.132Z,100172.91
2023-04-22T14:29:52.457Z,100172.66
2023-04-22T14:32:20.370Z,100175.69
2023-04-22T14:34:48.445Z,100167.41
2023-04-22T14:37:15.828Z,100166.31
2023-04-22T14:39:43.109Z,100173.41
2023-04-22T14:42:10.996Z,100159.16
2023-04-22T14:44:38.236Z,100162.03
2023-04-22T14:47:06.138Z,100164.78
2023-04-22T14:49:33.503Z,100173.25
2023-04-22T14:52:01.497Z,100162.03
2023-04-22T14:54:29.006Z,100162.31
2023-04-22T14:56:56.541Z,100171.06
2023-04-22T14:59:23.780Z,100162.50
2023-04-22T15:01:51.180Z,100172.63
2023-04-22T15:04:19.442Z,100151.53
2023-04-22T15:06:46.999Z,100156.47
2023-04-22T15:09:14.365Z,100148.34
2023-04-22T15:11:41.649Z,100141.97
2023-04-22T15:14:08.965Z,100145.31
2023-04-22T15:16:36.359Z,100136.97
2023-04-22T15:19:03.655Z,100136.63
2023-04-22T15:21:32.002Z,100139.69
2023-04-22T15:23:59.246Z,100144.56
2023-04-22T15:26:26.533Z,100135.41
2023-04-22T15:28:53.800Z,100137.28
2023-04-22T15:31:21.459Z,100141.53
2023-04-22T15:33:48.783Z,100142.56
2023-04-22T15:36:19.862Z,100155.53
2023-04-22T15:38:47.332Z,100159.63
2023-04-22T15:41:15.686Z,100159.22
2023-04-22T15:43:43.046Z,100156.03
2023-04-22T15:46:10.395Z,100163.47
2023-04-22T15:48:37.732Z,100166.72
2023-04-22T15:51:05.303Z,100171.25
2023-04-22T15:53:32.744Z,100170.88
2023-04-22T15:56:00.015Z,100164.44
2023-04-22T15:58:28.996Z,100166.69
2023-04-22T16:01:07.693Z,100165.91
2023-04-22T16:03:45.167Z,100175.69
2023-04-22T16:06:12.763Z,100183.22
2023-04-22T16:08:40.050Z,100182.91
2023-04-22T16:11:07.452Z,100186.88
2023-04-22T16:13:34.708Z,100176.50
2023-04-22T16:16:02.050Z,100173.53
2023-04-22T16:18:29.427Z,100175.38
2023-04-22T16:20:56.823Z,100177.81
2023-04-22T16:23:24.076Z,100174.69
2023-04-22T16:25:51.493Z,100176.81
2023-04-22T16:28:19.041Z,100172.84
2023-04-22T16:30:46.909Z,100175.75
2023-04-22T16:33:14.886Z,100173.63
2023-04-22T16:35:42.622Z,100172.88
2023-04-22T16:38:10.260Z,100174.25
2023-04-22T16:40:38.710Z,100182.06
2023-04-22T16:43:07.228Z,100181.41
2023-04-22T16:45:35.601Z,100177.84
2023-04-22T16:48:03.444Z,100178.13
2023-04-22T16:50:30.727Z,100170.94
2023-04-22T16:52:58.136Z,100175.22
2023-04-22T16:55:25.423Z,100166.97
2023-04-22T16:57:52.893Z,100166.44
2023-04-22T17:00:20.948Z,100162.00
2023-04-22T17:02:48.369Z,100161.13
2023-04-22T17:05:15.820Z,100163.59
2023-04-22T17:07:43.199Z,100168.44
2023-04-22T17:10:10.716Z,100174.84
2023-04-22T17:12:37.996Z,100168.53
2023-04-22T17:15:06.335Z,100171.56
2023-04-22T17:17:33.759Z,100175.56
2023-04-22T17:20:01.207Z,100167.38
2023-04-22T17:22:28.442Z,100172.09
2023-04-22T17:24:57.587Z,100174.53
2023-04-22T17:27:25.040Z,100175.34
2023-04-22T17:29:52.376Z,100184.63
2023-04-22T17:32:20.197Z,100188.28
2023-04-22T17:34:47.838Z,100177.47
2023-04-22T17:37:15.214Z,100193.50
2023-04-22T17:39:42.814Z,100181.75
2023-04-22T17:42:10.137Z,100180.78
2023-04-22T17:44:37.795Z,100185.25
2023-04-22T17:47:07.143Z,100182.22
2023-04-22T17:49:34.902Z,100197.00
2023-04-22T17:52:02.209Z,100190.97
2023-04-22T17:54:29.570Z,100194.75
2023-04-22T17:56:57.054Z,100197.06
2023-04-22T17:59:24.385Z,100187.88
2023-04-22T18:01:51.698Z,100200.81
2023-04-22T18:04:19.412Z,100188.81
2023-04-22T18:06:47.007Z,100191.19
2023-04-22T18:09:14.329Z,100190.81
2023-04-22T18:11:41.576Z,100190.41
2023-04-22T18:14:08.977Z,100181.97
2023-04-22T18:16:36.223Z,100188.19
2023-04-22T18:19:06.646Z,100196.16
2023-04-22T18:21:36.121Z,100199.19
2023-04-22T18:24:04.548Z,100202.53
2023-04-22T18:26:32.317Z,100201.59
2023-04-22T18:28:59.618Z,100201.66
2023-04-22T18:31:27.098Z,100204.19
2023-04-22T18:33:54.409Z,100206.41
2023-04-22T18:36:21.676Z,100206.41
2023-04-22T18:38:48.967Z,100207.19
2023-04-22T18:41:16.477Z,100208.84
2023-04-22T18:43:43.950Z,100208.28
2023-04-22T18:46:11.206Z,100207.34
2023-04-22T18:48:38.552Z,100215.31
2023-04-22T18:51:06.112Z,100217.25
2023-04-22T18:53:34.383Z,100213.75
2023-04-22T18:56:02.193Z,100221.38
2023-04-22T18:58:29.691Z,100213.84
2023-04-22T19:00:57.048Z,100215.31
2023-04-22T19:03:27.708Z,100220.31
2023-04-22T19:05:55.140Z,100218.94
2023-04-22T19:08:22.448Z,100221.97
2023-04-22T19:10:49.667Z,100238.31
2023-04-22T19:13:29.089Z,100241.25
2023-04-22T19:15:57.973Z,100230.09
2023-04-22T19:18:26.250Z,100237.47
2023-04-22T19:20:54.044Z,100236.88
2023-04-22T19:23:21.876Z,100240.16
2023-04-22T19:25:49.231Z,100240.44
2023-04-22T19:28:16.425Z,100241.94
2023-04-22T19:30:43.696Z,100246.81
2023-04-22T19:33:11.310Z,100244.25
2023-04-22T19:35:38.544Z,100243.66
2023-04-22T19:38:05.950Z,100240.88
2023-04-22T19:40:33.387Z,100244.78
2023-04-22T19:43:00.861Z,100248.38
2023-04-22T19:45:29.918Z,100248.06
2023-04-22T19:47:57.587Z,100250.47
2023-04-22T19:50:25.045Z,100249.59
2023-04-22T19:52:57.519Z,100256.78
2023-04-22T19:55:25.167Z,100257.94
2023-04-22T19:57:52.768Z,100253.00
2023-04-22T20:00:20.389Z,100254.88
2023-04-22T20:02:47.983Z,100259.38
2023-04-22T20:05:18.292Z,100257.13
2023-04-22T20:07:45.483Z,100260.84
2023-04-22T20:10:13.921Z,100252.66
2023-04-22T20:12:41.615Z,100257.50
2023-04-22T20:15:09.641Z,100261.94
2023-04-22T20:17:39.176Z,100255.69
2023-04-22T20:20:11.718Z,100260.69
2023-04-22T20:22:41.449Z,100262.06
2023-04-22T20:25:12.405Z,100261.22
2023-04-22T20:27:40.511Z,100259.56
2023-04-22T20:30:08.706Z,100259.03
2023-04-22T20:32:36.733Z,100262.97
2023-04-22T20:35:05.834Z,100263.38
2023-04-22T20:37:36.039Z,100264.81
2023-04-22T20:40:04.551Z,100264.72
2023-04-22T20:42:36.882Z,100263.34
2023-04-22T20:45:05.448Z,100272.13
2023-04-22T20:47:33.056Z,100273.72
2023-04-22T20:50:00.633Z,100274.97
2023-04-22T20:52:27.931Z,100270.75
2023-04-22T20:54:56.667Z,100270.25
2023-04-22T20:57:24.176Z,100275.63
2023-04-22T20:59:51.527Z,100274.28
2023-04-22T21:02:20.411Z,100278.81
2023-04-22T21:04:48.312Z,100276.47
2023-04-22T21:07:16.851Z,100278.00
2023-04-22T21:09:44.300Z,100275.22
2023-04-22T21:12:11.984Z,100280.63
2023-04-22T21:14:41.699Z,100288.09
2023-04-22T21:17:21.438Z,100283.59
2023-04-22T21:19:50.524Z,100288.34
2023-04-22T21:22:21.452Z,100294.56
2023-04-22T21:24:49.694Z,100295.09
2023-04-22T21:27:18.158Z,100299.69
2023-04-22T21:29:46.677Z,100292.34
2023-04-22T21:32:14.354Z,100296.34
2023-04-22T21:34:42.181Z,100293.94
2023-04-22T21:37:09.948Z,100293.78
2023-04-22T21:39:37.514Z,100294.06
2023-04-22T21:42:07.948Z,100299.69
2023-04-22T21:44:37.208Z,100292.94
2023-04-22T21:47:05.542Z,100297.28
2023-04-22T21:49:33.207Z,100302.75
2023-04-22T21:52:01.085Z,100294.91
2023-04-22T21:54:28.502Z,100294.03
2023-04-22T21:56:56.938Z,100302.09
2023-04-22T21:59:24.851Z,100306.66
2023-04-22T22:01:52.418Z,100307.72
2023-04-22T22:04:20.081Z,100312.19
2023-04-22T22:06:47.557Z,100308.16
2023-04-22T22:09:15.494Z,100302.09
2023-04-22T22:11:42.779Z,100302.38
2023-04-22T22:14:10.186Z,100303.78
2023-04-22T22:16:38.411Z,100313.84
2023-04-22T22:19:06.461Z,100309.97
2023-04-22T22:21:33.938Z,100309.25
2023-04-22T22:24:01.262Z,100318.47
2023-04-22T22:26:29.237Z,100322.94
2023-04-22T22:28:57.517Z,100325.19
2023-04-22T22:31:24.807Z,100330.78
2023-04-22T22:33:52.232Z,100324.84
2023-04-22T22:36:19.758Z,100328.78
2023-04-22T22:38:47.040Z,100326.66
2023-04-22T22:41:14.302Z,100320.19
2023-04-22T22:43:41.548Z,100327.09
2023-04-22T22:46:09.009Z,100325.28
2023-04-22T22:48:36.901Z,100321.25
2023-04-22T22:51:04.399Z,100325.66
2023-04-22T22:53:33.845Z,100321.47
2023-04-22T22:56:01.120Z,100321.94
2023-04-22T22:58:28.399Z,100317.94
2023-04-22T23:00:56.165Z,100326.47
2023-04-22T23:03:23.604Z,100315.84
2023-04-22T23:05:51.133Z,100322.66
2023-04-22T23:08:18.521Z,100332.25
2023-04-22T23:10:45.774Z,100323.59
2023-04-22T23:13:13.011Z,100327.75
2023-04-22T23:15:40.445Z,100325.50
2023-04-22T23:18:09.122Z,100323.94
2023-04-22T23:20:36.995Z,100328.31
2023-04-22T23:23:04.713Z,100322.78
2023-04-22T23:25:32.189Z,100323.88
2023-04-22T23:27:59.848Z,100325.72
2023-04-22T23:30:27.334Z,100329.03
2023-04-22T23:32:57.656Z,100321.47
2023-04-22T23:35:27.528Z,100314.16
2023-04-22T23:37:55.066Z,100312.66
2023-04-22T23:40:22.288Z,100307.31
2023-04-22T23:42:49.840Z,100315.09
2023-04-22T23:45:17.135Z,100308.75
2023-04-22T23:47:44.550Z,100308.97
2023-04-22T23:50:14.014Z,100301.34
2023-04-22T23:52:42.632Z,100305.06
2023-04-22T23:55:11.339Z,100296.00
2023-04-22T23:57:38.804Z,100301.13
